Time;durP1;ratioP1;P1;durP2;ratioP2;P2;SDS_P1;SDS_P2;PMS_P1;PMS_P2;Temp;Humidity;BMP_temperature;BMP_pressure;BME280_temperature;BME280_humidity;BME280_pressure;Samples;Min_cycle;Max_cycle;Signal;HPM_P1;HPM_P2
2021/01/15 05:54:35;;;;;;;8.48;4.82;;;;;;;-2.99;67.40;96830.38;5660856;23;20172;-84
2021/01/15 06:10:22;;;;;;;7.68;5.40;;;;;;;-3.04;67.58;96855.38;4882679;29;20037;-84
2021/01/15 06:12:51;;;;;;;9.25;5.43;;;;;;;-3.06;67.27;96852.09;4883864;29;20078;-83
2021/01/15 06:15:18;;;;;;;7.63;5.95;;;;;;;-3.08;67.24;96853.91;4886096;29;20041;-85
2021/01/15 06:17:49;;;;;;;8.70;5.65;;;;;;;-3.10;67.26;96855.72;4867539;29;20136;-81
2021/01/15 06:20:19;;;;;;;10.15;6.55;;;;;;;-3.10;67.46;96855.72;4880897;29;20041;-81
2021/01/15 06:22:48;;;;;;;12.50;6.65;;;;;;;-3.10;67.71;96858.28;4870489;29;20046;-78
2021/01/15 06:25:22;;;;;;;10.20;6.90;;;;;;;-3.10;67.39;96871.03;4868583;29;20044;-81
2021/01/15 06:27:56;;;;;;;9.10;6.07;;;;;;;-3.10;67.96;96860.84;4880870;29;20044;-80
2021/01/15 06:30:30;;;;;;;8.73;6.05;;;;;;;-3.08;68.04;96866.66;4884296;29;20102;-82
2021/01/15 06:33:11;;;;;;;12.43;7.00;;;;;;;-3.05;67.96;96868.22;4886202;29;20038;-83
2021/01/15 06:35:42;;;;;;;15.95;9.68;;;;;;;-3.01;68.71;96873.03;4883458;29;20034;-82
2021/01/15 06:38:11;;;;;;;18.15;9.88;;;;;;;-2.97;68.36;96877.06;4945085;23;20064;-81
2021/01/15 06:40:39;;;;;;;13.77;8.25;;;;;;;-2.98;68.47;96877.94;4866933;29;20065;-81
2021/01/15 06:43:08;;;;;;;12.57;7.05;;;;;;;-2.96;68.67;96891.44;4875510;29;20065;-81
2021/01/15 06:45:39;;;;;;;11.48;7.57;;;;;;;-2.97;68.65;96889.00;4880622;29;20054;-81
2021/01/15 06:48:11;;;;;;;12.00;7.45;;;;;;;-2.95;69.04;96890.56;4885054;29;20066;-81
2021/01/15 06:50:39;;;;;;;10.07;7.28;;;;;;;-2.91;68.67;96897.13;4872982;29;20057;-80
2021/01/15 06:53:14;;;;;;;10.73;7.43;;;;;;;-2.89;68.88;96894.44;4882076;29;20061;-82
2021/01/15 06:55:43;;;;;;;14.48;7.97;;;;;;;-2.87;68.82;96900.28;4883160;29;20105;-81
2021/01/15 06:58:18;;;;;;;13.57;8.07;;;;;;;-2.84;69.21;96899.28;4890514;23;20049;-81
2021/01/15 07:01:16;;;;;;;10.00;7.47;;;;;;;-2.84;69.18;96909.50;4878076;29;20120;-80
2021/01/15 07:04:24;;;;;;;10.63;7.72;;;;;;;-2.83;69.20;96911.97;4885868;29;20057;-80
2021/01/15 07:07:05;;;;;;;13.65;8.63;;;;;;;-2.83;69.01;96908.59;4862412;29;20101;-81
2021/01/15 07:09:32;;;;;;;13.60;9.15;;;;;;;-2.82;68.87;96912.78;4885391;29;20037;-80
2021/01/15 07:12:04;;;;;;;14.10;8.85;;;;;;;-2.81;69.65;96917.00;4885200;29;20125;-80
2021/01/15 07:14:45;;;;;;;12.32;8.23;;;;;;;-2.84;68.54;96922.25;4885730;29;20053;-80
2021/01/15 07:17:18;;;;;;;10.98;7.60;;;;;;;-2.83;68.90;96918.81;4885440;29;20044;-80
2021/01/15 07:19:49;;;;;;;12.65;8.43;;;;;;;-2.85;68.71;96925.75;4885291;29;20105;-80
2021/01/15 07:22:20;;;;;;;13.75;8.02;;;;;;;-2.87;68.59;96933.47;4884210;29;20061;-81
2021/01/15 07:24:50;;;;;;;12.30;8.10;;;;;;;-2.90;68.75;96929.38;4885451;29;20064;-81
2021/01/15 07:27:17;;;;;;;14.85;8.38;;;;;;;-2.88;68.89;96931.03;4884900;29;20033;-80
2021/01/15 07:29:49;;;;;;;11.52;8.80;;;;;;;-2.90;68.54;96929.38;4885715;29;20062;-81
2021/01/15 07:32:20;;;;;;;11.18;7.95;;;;;;;-2.90;69.18;96939.59;4883704;29;20033;-80
2021/01/15 07:34:52;;;;;;;12.50;8.50;;;;;;;-2.88;68.55;96936.16;4883682;29;20073;-81
2021/01/15 07:37:22;;;;;;;12.35;8.40;;;;;;;-2.90;68.39;96939.59;4883309;29;20072;-81
2021/01/15 07:40:11;;;;;;;15.50;9.77;;;;;;;-2.90;69.17;96949.78;4882891;29;20048;-81
2021/01/15 07:42:47;;;;;;;12.32;9.30;;;;;;;-2.87;69.12;96953.09;4884949;29;20046;-80
2021/01/15 07:45:50;;;;;;;13.43;9.07;;;;;;;-2.83;69.41;96959.66;4885181;29;20109;-80
2021/01/15 07:48:24;;;;;;;;;;;;;;;-2.80;68.82;96962.03;4885261;29;20041;-81
2021/01/15 07:50:53;;;;;;;15.98;9.18;;;;;;;-2.87;68.61;96965.84;4885122;29;19933;-80
2021/01/15 07:53:35;;;;;;;16.73;9.20;;;;;;;-2.93;68.02;96977.22;4885046;29;20072;-81
2021/01/15 07:56:04;;;;;;;14.05;9.48;;;;;;;-2.98;68.53;96981.78;4882521;29;20041;-81
2021/01/15 07:58:45;;;;;;;13.63;9.88;;;;;;;-3.02;68.08;96981.13;4884343;29;20045;-81
2021/01/15 08:01:14;;;;;;;14.43;9.65;;;;;;;-3.05;68.13;96981.31;4884564;29;20057;-81
2021/01/15 08:03:43;;;;;;;14.32;9.48;;;;;;;-3.05;68.61;96986.41;4880369;29;20053;-81
2021/01/15 08:06:13;;;;;;;19.02;9.73;;;;;;;-3.03;68.97;96979.50;4876589;29;20059;-80
2021/01/15 08:11:58;;;;;;;20.75;11.38;;;;;;;-3.05;68.06;96990.72;5607890;23;20024;-80
2021/01/15 08:14:41;;;;;;;18.65;10.95;;;;;;;-3.05;68.78;96999.19;5341368;23;20061;-78
2021/01/15 08:17:11;;;;;;;16.25;10.55;;;;;;;-3.07;68.95;96997.63;4870637;29;20500;-79
2021/01/15 08:19:39;;;;;;;20.50;11.50;;;;;;;-3.09;68.51;96999.44;4878969;29;20060;-78
2021/01/15 08:22:13;;;;;;;17.25;11.82;;;;;;;-3.14;68.24;96997.97;4879289;29;20045;-80
2021/01/15 08:24:46;;;;;;;16.33;9.38;;;;;;;-3.15;68.07;97000.59;4879720;29;20064;-81
2021/01/15 08:27:17;;;;;;;29.23;11.68;;;;;;;-3.18;68.08;96998.25;4879852;29;20049;-81
2021/01/15 08:29:44;;;;;;;21.92;9.75;;;;;;;-3.18;68.65;97004.16;4879064;29;20064;-80
2021/01/15 08:32:11;;;;;;;25.27;10.23;;;;;;;-3.15;68.49;97018.47;4880485;29;20055;-80
2021/01/15 08:34:40;;;;;;;19.67;11.50;;;;;;;-3.13;68.31;97014.94;4881274;29;20088;-80
2021/01/15 08:37:09;;;;;;;19.25;11.70;;;;;;;-3.08;68.91;97030.00;4882686;29;20053;-80
2021/01/15 08:39:43;;;;;;;21.70;11.85;;;;;;;-3.04;69.10;97028.06;4884199;29;20053;-80
2021/01/15 08:42:10;;;;;;;17.83;12.18;;;;;;;-3.01;68.53;97033.84;4884812;29;20061;-81
2021/01/15 08:44:38;;;;;;;18.67;12.00;;;;;;;-3.01;68.88;97031.28;4884388;29;20060;-81
2021/01/15 08:47:08;;;;;;;20.52;12.02;;;;;;;-2.98;68.82;97032.84;4884445;29;20048;-81
2021/01/15 08:49:34;;;;;;;19.70;11.45;;;;;;;-2.95;68.95;97038.59;4884053;29;20053;-81
2021/01/15 08:52:03;;;;;;;16.42;11.90;;;;;;;-2.92;68.93;97038.41;4883528;29;20053;-79
2021/01/15 08:54:31;;;;;;;19.30;11.57;;;;;;;-2.86;69.26;97041.50;4883745;29;20057;-80
2021/01/15 08:57:00;;;;;;;18.88;11.63;;;;;;;-2.81;68.88;97039.53;4883823;29;20049;-80
2021/01/15 08:59:28;;;;;;;18.33;11.77;;;;;;;-2.79;68.36;97048.75;4883807;29;20063;-81
2021/01/15 09:01:56;;;;;;;18.85;11.63;;;;;;;-2.76;68.61;97050.28;4883953;29;20061;-81
2021/01/15 09:04:25;;;;;;;21.08;13.18;;;;;;;-2.72;69.14;97049.22;4883714;29;20049;-79
2021/01/15 09:06:54;;;;;;;21.25;12.85;;;;;;;-2.66;69.48;97043.75;4882576;29;20060;-79
2021/01/15 09:09:23;;;;;;;22.80;13.38;;;;;;;-2.60;69.26;97053.63;4886078;29;20078;-80
2021/01/15 09:11:51;;;;;;;20.00;12.40;;;;;;;-2.53;69.69;97052.34;4880995;29;20057;-79
2021/01/15 09:14:21;;;;;;;20.77;13.43;;;;;;;-2.46;70.15;97052.00;4865870;29;20050;-81
2021/01/15 09:16:48;;;;;;;17.45;11.73;;;;;;;-2.40;69.99;97060.13;4865855;29;20505;-81
2021/01/15 09:19:16;;;;;;;20.70;13.63;;;;;;;-2.36;70.41;97050.53;4865056;29;20053;-81
2021/01/15 09:21:46;;;;;;;18.75;11.30;;;;;;;-2.30;70.46;97065.50;4870667;29;20060;-81
2021/01/15 09:24:13;;;;;;;18.73;11.45;;;;;;;-2.24;69.86;97069.44;4864221;29;20053;-80
2021/01/15 09:26:41;;;;;;;22.50;12.70;;;;;;;-2.18;69.75;97069.06;4867858;29;20063;-81
2021/01/15 09:29:08;;;;;;;24.10;12.70;;;;;;;-2.13;69.96;97067.88;4874578;29;20055;-81
2021/01/15 09:31:34;;;;;;;17.90;12.05;;;;;;;-2.07;70.29;97077.75;4874695;29;20066;-81
2021/01/15 09:34:01;;;;;;;16.77;11.23;;;;;;;-1.99;70.27;97079.00;4868180;29;20049;-81
2021/01/15 09:36:28;;;;;;;17.88;12.05;;;;;;;-1.94;69.69;97087.25;4873294;29;20057;-81
2021/01/15 09:38:56;;;;;;;18.45;12.52;;;;;;;-1.90;70.09;97083.59;4875440;29;20465;-81
2021/01/15 09:41:24;;;;;;;17.75;11.77;;;;;;;-1.81;70.11;97092.44;4874005;29;20049;-80
2021/01/15 09:43:53;;;;;;;20.40;11.68;;;;;;;-1.74;69.68;97083.47;4866789;29;20520;-80
2021/01/15 09:46:26;;;;;;;20.20;12.20;;;;;;;-1.70;69.41;97084.94;4869047;29;20092;-80
2021/01/15 09:51:56;;;;;;;17.60;11.38;;;;;;;-1.54;69.92;97095.03;5004985;23;20068;-81
2021/01/15 09:54:23;;;;;;;17.58;10.98;;;;;;;-1.47;69.53;97097.09;5315010;23;20053;-81
2021/01/15 09:56:50;;;;;;;17.10;11.48;;;;;;;-1.39;69.72;97104.31;4885745;29;20671;-80
2021/01/15 09:59:20;;;;;;;17.83;12.50;;;;;;;-1.29;69.52;97104.56;4885663;29;20073;-81
2021/01/15 10:15:44;;;;;;;16.67;11.23;;;;;;;-0.33;68.60;97114.66;5167008;23;20052;-81
2021/01/15 10:32:00;;;;;;;17.83;11.98;;;;;;;0.89;64.08;97110.56;5183530;23;20076;-80
2021/01/15 10:34:43;;;;;;;15.18;10.82;;;;;;;1.09;63.41;97109.16;4871360;29;20045;-82
2021/01/15 10:45:17;;;;;;;14.88;10.90;;;;;;;1.86;62.96;97116.41;1188225;23;20321;-80
2021/01/15 10:47:45;;;;;;;17.55;11.95;;;;;;;2.03;63.23;97112.56;4885493;29;20049;-80
2021/01/15 10:50:15;;;;;;;17.30;12.05;;;;;;;2.19;62.19;97107.09;4867328;29;20034;-79
2021/01/15 10:52:42;;;;;;;18.23;11.93;;;;;;;2.29;62.05;97108.00;4867894;29;20106;-81
2021/01/15 10:55:11;;;;;;;15.30;10.85;;;;;;;2.46;62.43;97112.66;4867502;29;20046;-79
2021/01/15 10:57:37;;;;;;;17.20;11.30;;;;;;;2.64;61.55;97117.34;4866981;29;20050;-80
2021/01/15 11:00:05;;;;;;;18.08;11.95;;;;;;;2.78;61.80;97113.69;4866364;29;20093;-79
2021/01/15 11:02:32;;;;;;;14.73;11.25;;;;;;;2.92;61.69;97110.84;4867209;29;20060;-80
2021/01/15 11:05:00;;;;;;;13.93;10.73;;;;;;;3.07;60.71;97113.97;4865757;29;20058;-79
2021/01/15 11:07:26;;;;;;;16.65;11.18;;;;;;;3.18;59.99;97111.34;4866453;29;20109;-80
2021/01/15 11:09:55;;;;;;;15.32;10.82;;;;;;;3.27;60.14;97105.44;4863984;29;20110;-78
2021/01/15 11:12:22;;;;;;;15.52;11.43;;;;;;;3.34;59.09;97104.94;4843950;29;20074;-79
2021/01/15 11:14:49;;;;;;;15.55;11.05;;;;;;;3.34;58.38;97100.59;4861103;29;20099;-80
2021/01/15 11:17:17;;;;;;;13.57;10.13;;;;;;;3.38;59.20;97107.16;4865765;29;20046;-80
2021/01/15 11:19:48;;;;;;;17.15;11.55;;;;;;;3.49;59.71;97099.34;4863508;29;20069;-81
2021/01/15 11:22:16;;;;;;;14.68;10.40;;;;;;;3.60;59.88;97106.22;4861250;29;20109;-81
2021/01/15 11:24:42;;;;;;;12.68;9.98;;;;;;;3.70;60.30;97103.72;4851266;29;20132;-81
2021/01/15 11:27:09;;;;;;;13.88;10.13;;;;;;;3.81;60.31;97105.41;4864566;29;20117;-80
2021/01/15 11:29:36;;;;;;;13.80;10.35;;;;;;;3.89;59.61;97098.69;5008263;23;20077;-79
2021/01/15 11:32:03;;;;;;;14.00;10.30;;;;;;;3.99;59.93;97101.31;4882712;29;20113;-80
2021/01/15 11:34:33;;;;;;;13.13;10.43;;;;;;;4.10;59.44;97105.56;4885133;29;20117;-80
2021/01/15 11:37:01;;;;;;;14.40;10.20;;;;;;;4.21;59.62;97115.81;4885225;29;20053;-80
2021/01/15 11:39:28;;;;;;;14.18;10.52;;;;;;;4.29;59.62;97102.25;4883890;29;20045;-81
2021/01/15 11:41:55;;;;;;;13.82;10.05;;;;;;;4.38;58.37;97100.66;4884157;29;20053;-80
2021/01/15 11:44:22;;;;;;;14.35;10.18;;;;;;;4.42;57.93;97110.59;4884717;29;20047;-81
2021/01/15 11:46:49;;;;;;;13.88;10.32;;;;;;;4.45;58.27;97102.56;4885149;29;20045;-80
2021/01/15 11:49:28;;;;;;;11.48;9.25;;;;;;;4.53;57.34;97107.91;4884389;29;20038;-81
2021/01/15 11:51:55;;;;;;;12.70;9.77;;;;;;;4.60;56.50;97109.97;4884153;29;20100;-80
2021/01/15 11:54:26;;;;;;;13.05;9.98;;;;;;;4.63;57.63;97114.88;4882952;29;20070;-81
2021/01/15 11:56:53;;;;;;;13.32;9.65;;;;;;;4.70;57.49;97111.63;4881584;29;20112;-81
2021/01/15 11:59:20;;;;;;;15.02;10.50;;;;;;;4.77;57.06;97111.94;4882670;29;20047;-80
2021/01/15 12:01:46;;;;;;;13.48;10.98;;;;;;;4.83;57.54;97106.22;4884755;29;20072;-79
2021/01/15 12:04:13;;;;;;;12.85;10.25;;;;;;;4.89;56.87;97110.84;4883981;29;20052;-81
2021/01/15 12:06:40;;;;;;;15.60;10.80;;;;;;;4.93;55.41;97111.41;4883238;29;20053;-79
2021/01/15 12:09:06;;;;;;;15.30;10.95;;;;;;;4.90;55.76;97107.31;4883662;29;20041;-79
2021/01/15 12:11:36;;;;;;;12.48;10.98;;;;;;;4.89;54.46;97105.69;4881969;29;20144;-81
2021/01/15 12:14:04;;;;;;;16.75;12.35;;;;;;;4.80;54.02;97106.47;4880952;29;20115;-78
2021/01/15 12:16:30;;;;;;;13.73;10.30;;;;;;;4.74;54.68;97107.00;4881561;29;20053;-81
2021/01/15 12:18:57;;;;;;;14.82;11.07;;;;;;;4.72;54.95;97103.72;4877740;29;20057;-80
2021/01/15 12:21:23;;;;;;;14.35;10.65;;;;;;;4.70;54.40;97105.63;4876767;29;20140;-80
2021/01/15 12:23:50;;;;;;;14.20;9.90;;;;;;;4.74;55.63;97107.84;4879330;29;20055;-80
2021/01/15 12:26:21;;;;;;;14.50;10.25;;;;;;;4.80;55.55;97106.47;4872765;29;20058;-81
2021/01/15 12:28:47;;;;;;;13.48;10.52;;;;;;;4.81;54.17;97102.13;4874216;29;20053;-81
2021/01/15 12:31:16;;;;;;;13.23;10.25;;;;;;;4.72;54.20;97099.41;4871334;29;20041;-81
2021/01/15 12:33:43;;;;;;;12.32;9.57;;;;;;;4.70;54.30;97097.88;4882764;29;20097;-80
2021/01/15 12:36:11;;;;;;;13.10;10.15;;;;;;;4.72;53.99;97096.81;4881744;29;20040;-80
2021/01/15 12:38:38;;;;;;;11.20;8.98;;;;;;;4.77;53.93;97091.25;4883230;29;20113;-80
2021/01/15 12:41:05;;;;;;;12.15;8.48;;;;;;;4.82;54.00;97090.84;4872557;29;20049;-79
2021/01/15 12:43:32;;;;;;;11.68;8.88;;;;;;;4.85;54.12;97093.97;4862812;29;20057;-79
2021/01/15 12:45:59;;;;;;;10.63;7.97;;;;;;;4.87;53.63;97099.81;4879715;29;20060;-81
2021/01/15 12:48:27;;;;;;;10.63;8.57;;;;;;;4.89;53.08;97097.91;4881647;29;20053;-80
2021/01/15 12:50:53;;;;;;;10.52;7.57;;;;;;;4.90;52.95;97099.56;4883123;29;20049;-80
2021/01/15 12:53:20;;;;;;;10.75;8.23;;;;;;;4.92;54.09;97100.25;4883087;29;20105;-81
2021/01/15 12:55:47;;;;;;;10.98;8.43;;;;;;;4.87;52.97;97102.41;4882287;29;20104;-81
2021/01/15 12:58:14;;;;;;;11.77;8.50;;;;;;;4.82;52.95;97103.78;4882055;29;20113;-80
2021/01/15 13:00:41;;;;;;;10.98;8.25;;;;;;;4.82;52.72;97096.81;4881231;23;20061;-84
2021/01/15 13:03:09;;;;;;;13.45;9.65;;;;;;;4.83;52.65;97105.38;4868746;29;20132;-85
2021/01/15 13:05:39;;;;;;;13.07;9.65;;;;;;;4.81;52.59;97104.72;4868115;29;20049;-84
2021/01/15 13:08:13;;;;;;;16.40;9.57;;;;;;;4.80;52.57;97110.84;4869626;29;20061;-84
2021/01/15 13:10:48;;;;;;;13.23;9.85;;;;;;;4.82;52.64;97112.34;4873940;29;20532;-82
2021/01/15 13:13:26;;;;;;;;;;;;;;;4.90;53.44;97116.84;4867299;29;20117;-85
2021/01/15 13:16:01;;;;;;;12.32;9.07;;;;;;;4.90;52.92;97116.84;4869797;29;19952;-89
2021/01/15 13:18:44;;;;;;;14.82;9.75;;;;;;;4.85;53.07;97124.97;4881571;29;20057;-92
2021/01/15 13:21:20;;;;;;;15.43;9.90;;;;;;;4.83;53.17;97116.56;4880739;29;20081;-86
2021/01/15 13:23:48;;;;;;;12.88;9.55;;;;;;;4.80;53.21;97111.66;4874677;29;20442;-87
2021/01/15 13:26:30;;;;;;;13.25;9.82;;;;;;;4.74;53.09;97115.59;4887269;29;20049;-90
2021/01/15 13:29:06;;;;;;;11.77;9.27;;;;;;;4.66;52.58;97119.78;4869417;29;20042;-89
2021/01/15 13:31:38;;;;;;;17.15;10.73;;;;;;;4.56;53.83;97129.28;4869271;29;20080;-90
2021/01/15 13:34:23;;;;;;;14.73;10.57;;;;;;;4.45;53.55;97125.03;4869148;29;20053;-90
2021/01/15 13:37:10;;;;;;;13.70;10.40;;;;;;;4.30;53.06;97124.53;4868856;29;20080;-89
2021/01/15 13:39:39;;;;;;;16.52;10.30;;;;;;;4.13;54.06;97128.53;4866485;29;20113;-91
2021/01/15 13:42:11;;;;;;;17.65;10.55;;;;;;;4.01;54.65;97138.13;4866477;29;20050;-87
2021/01/15 13:44:49;;;;;;;15.95;10.32;;;;;;;3.88;54.69;97134.94;4866867;29;20082;-89
2021/01/15 13:47:28;;;;;;;15.43;10.45;;;;;;;3.78;54.83;97137.44;4867155;29;20083;-89
2021/01/15 13:50:01;;;;;;;15.00;11.20;;;;;;;3.70;56.12;97148.41;4868490;29;20038;-87
2021/01/15 13:52:31;;;;;;;14.95;10.35;;;;;;;3.62;55.33;97144.81;4868940;29;20061;-88
2021/01/15 13:55:04;;;;;;;13.55;10.40;;;;;;;3.55;57.94;97149.66;4868923;29;20038;-89
2021/01/15 13:57:48;;;;;;;14.25;10.77;;;;;;;3.52;56.31;97157.66;4868191;29;20026;-89
2021/01/15 14:00:29;;;;;;;15.48;9.52;;;;;;;3.46;57.11;97155.56;4914083;23;20057;-88
2021/01/15 14:02:56;;;;;;;13.80;10.55;;;;;;;3.38;56.71;97163.88;4874816;29;20475;-86
2021/01/15 14:05:23;;;;;;;13.57;10.50;;;;;;;3.30;57.05;97161.94;4878539;29;20053;-88
2021/01/15 14:07:54;;;;;;;13.43;9.70;;;;;;;3.26;57.19;97164.88;4879554;29;20057;-86
2021/01/15 14:10:23;;;;;;;15.10;10.23;;;;;;;3.24;57.12;97169.34;4874439;29;20064;-86
2021/01/15 14:12:55;;;;;;;12.23;9.23;;;;;;;3.26;57.77;97178.59;4872821;29;20074;-87
2021/01/15 14:15:27;;;;;;;14.02;9.68;;;;;;;3.25;57.33;97174.34;4873419;29;20144;-87
2021/01/15 14:18:01;;;;;;;11.30;8.43;;;;;;;3.25;57.52;97189.81;4875816;29;20117;-85
2021/01/15 14:20:38;;;;;;;11.35;8.90;;;;;;;3.26;57.51;97190.66;4878683;29;20082;-84
2021/01/15 14:23:11;;;;;;;14.45;9.68;;;;;;;3.27;58.31;97193.09;4880476;29;20069;-85
2021/01/15 14:25:49;;;;;;;12.45;9.63;;;;;;;3.29;57.68;97191.22;4873667;29;20071;-86
2021/01/15 14:28:24;;;;;;;14.82;9.48;;;;;;;3.29;58.44;97195.56;4872497;29;20113;-84
2021/01/15 14:31:04;;;;;;;12.32;9.25;;;;;;;3.30;58.79;97198.03;4872577;29;20303;-88
2021/01/15 14:33:36;;;;;;;;;;;;;;;3.34;58.98;97203.75;4873116;29;20073;-90
2021/01/15 14:36:14;;;;;;;12.48;9.20;;;;;;;3.27;57.87;97202.59;4872860;29;19911;-85
2021/01/15 14:38:44;;;;;;;12.82;9.02;;;;;;;3.17;57.93;97205.09;4869504;29;20088;-83
2021/01/15 14:41:14;;;;;;;13.02;9.45;;;;;;;3.12;58.64;97209.78;4869498;29;20082;-88
2021/01/15 14:43:41;;;;;;;14.02;9.80;;;;;;;3.03;57.91;97206.16;4867841;29;20611;-81
2021/01/15 14:46:09;;;;;;;11.73;8.82;;;;;;;2.95;58.07;97210.28;4868884;29;20053;-85
2021/01/15 14:48:40;;;;;;;12.90;9.02;;;;;;;2.89;58.79;97214.97;4868303;29;20482;-86
2021/01/15 14:51:14;;;;;;;11.10;8.60;;;;;;;2.88;59.59;97212.50;4869414;29;20061;-84
2021/01/15 14:53:44;;;;;;;12.80;9.43;;;;;;;2.84;59.05;97216.25;4868191;29;20156;-83
2021/01/15 14:56:12;;;;;;;11.98;8.88;;;;;;;2.79;59.64;97229.50;4870124;29;20053;-86
2021/01/15 14:58:40;;;;;;;14.43;10.05;;;;;;;2.75;60.15;97230.66;4872128;29;20073;-90
2021/01/15 15:01:07;;;;;;;14.95;10.07;;;;;;;2.76;60.57;97232.31;4877260;29;20069;-91
2021/01/15 15:03:35;;;;;;;13.45;10.40;;;;;;;2.77;60.52;97238.28;4876835;29;20056;-88
2021/01/15 15:06:05;;;;;;;13.75;9.85;;;;;;;2.74;60.82;97252.22;4876307;29;20120;-90
2021/01/15 15:08:33;;;;;;;12.13;9.02;;;;;;;2.74;61.10;97243.69;4876230;29;20050;-86
2021/01/15 15:11:01;;;;;;;12.18;8.60;;;;;;;2.69;60.96;97246.63;4874820;29;20085;-88
2021/01/15 15:13:28;;;;;;;12.65;9.50;;;;;;;2.66;61.42;97251.97;4874253;29;20081;-89
2021/01/15 15:15:55;;;;;;;11.82;8.88;;;;;;;2.63;61.15;97255.59;4874499;29;20057;-84
2021/01/15 15:18:22;;;;;;;14.15;9.77;;;;;;;2.59;61.80;97255.97;4873858;29;20054;-86
2021/01/15 15:20:49;;;;;;;14.02;10.00;;;;;;;2.55;60.97;97267.44;4873404;29;20057;-86
2021/01/15 15:23:17;;;;;;;13.18;9.60;;;;;;;2.50;60.86;97260.06;4873411;29;20080;-85
2021/01/15 15:25:44;;;;;;;10.23;8.07;;;;;;;2.45;61.18;97267.31;4872220;29;20405;-84
2021/01/15 15:28:15;;;;;;;10.63;8.20;;;;;;;2.42;61.24;97270.91;4871252;29;20046;-83
2021/01/15 15:30:42;;;;;;;12.77;8.52;;;;;;;2.38;61.83;97271.25;4871787;29;20054;-85
2021/01/15 15:33:09;;;;;;;14.07;9.10;;;;;;;2.34;62.15;97272.41;4871374;29;20467;-88
2021/01/15 15:35:36;;;;;;;13.82;8.88;;;;;;;2.28;61.52;97271.13;4870637;29;20057;-86
2021/01/15 15:38:03;;;;;;;10.77;8.52;;;;;;;2.20;62.07;97283.72;4869897;29;20059;-83
2021/01/15 15:40:30;;;;;;;11.95;8.60;;;;;;;2.14;62.13;97284.19;4869906;29;20501;-84
2021/01/15 15:42:57;;;;;;;11.65;8.73;;;;;;;2.06;62.40;97282.19;4870056;29;20049;-83
2021/01/15 15:45:24;;;;;;;11.15;8.27;;;;;;;1.98;62.21;97290.44;4868956;29;20053;-81
2021/01/15 15:47:51;;;;;;;11.02;7.85;;;;;;;1.93;62.61;97286.56;4869430;29;20053;-88
2021/01/15 15:50:18;;;;;;;11.02;8.45;;;;;;;1.88;63.13;97284.34;4868326;29;20061;-80
2021/01/15 15:52:52;;;;;;;12.55;8.55;;;;;;;1.86;63.10;97293.91;4868090;29;20088;-83
2021/01/15 15:55:19;;;;;;;11.32;8.00;;;;;;;1.81;63.03;97298.56;4868236;29;20125;-85
2021/01/15 15:57:46;;;;;;;11.23;8.88;;;;;;;1.77;63.68;97291.97;4867571;29;20045;-84
2021/01/15 16:00:16;;;;;;;10.80;8.90;;;;;;;1.76;63.33;97298.06;4867698;29;20077;-82
2021/01/15 16:02:44;;;;;;;12.90;8.93;;;;;;;1.74;63.32;97302.50;4867472;29;20053;-82
2021/01/15 16:05:11;;;;;;;13.25;8.45;;;;;;;1.72;63.74;97312.06;4867278;29;20148;-82
2021/01/15 16:07:38;;;;;;;11.57;8.65;;;;;;;1.69;63.48;97315.69;4866888;29;20074;-83
2021/01/15 16:10:07;;;;;;;12.40;7.78;;;;;;;1.68;64.09;97323.50;4866490;29;20053;-84
2021/01/15 16:12:35;;;;;;;11.18;7.72;;;;;;;1.66;63.62;97321.03;4866317;29;20076;-87
2021/01/15 16:15:13;;;;;;;10.27;6.80;;;;;;;1.61;63.97;97323.94;4869703;29;20057;-93
2021/01/15 16:17:42;;;;;;;11.75;7.35;;;;;;;1.58;63.97;97331.88;4866370;29;20053;-84
2021/01/15 16:20:13;;;;;;;10.98;7.93;;;;;;;1.53;64.08;97336.53;4865597;29;20049;-82
2021/01/15 16:22:47;;;;;;;10.90;7.97;;;;;;;1.49;64.22;97329.94;4865576;29;20061;-82
2021/01/15 16:25:19;;;;;;;10.93;8.23;;;;;;;1.48;64.11;97343.72;4865908;29;20060;-83
2021/01/15 16:27:52;;;;;;;13.43;9.43;;;;;;;1.46;64.82;97342.19;4867991;29;20056;-80
2021/01/15 16:30:20;;;;;;;12.82;8.45;;;;;;;1.42;64.46;97339.84;4865166;29;20380;-81
2021/01/15 16:32:51;;;;;;;11.15;8.15;;;;;;;1.41;65.00;97350.22;4864858;29;20053;-80
2021/01/15 16:35:18;;;;;;;11.45;8.27;;;;;;;1.35;65.29;97345.50;4864474;29;20057;-83
2021/01/15 16:37:45;;;;;;;12.43;8.25;;;;;;;1.29;65.82;97351.91;4865069;29;20058;-81
2021/01/15 16:40:14;;;;;;;9.75;7.50;;;;;;;1.24;65.97;97348.81;4869110;29;20049;-83
2021/01/15 16:42:43;;;;;;;10.30;7.80;;;;;;;1.21;65.93;97354.97;4869942;29;20513;-84
2021/01/15 16:45:16;;;;;;;10.48;7.85;;;;;;;1.18;66.31;97357.78;4869979;29;20066;-82
2021/01/15 16:47:44;;;;;;;9.80;7.82;;;;;;;1.13;65.98;97359.00;4871676;29;20058;-86
2021/01/15 16:50:11;;;;;;;8.75;6.57;;;;;;;1.09;65.87;97363.50;4872595;29;20056;-90
2021/01/15 16:52:39;;;;;;;10.30;7.43;;;;;;;1.03;66.08;97363.94;4871638;29;20053;-89
2021/01/15 16:55:07;;;;;;;10.50;7.15;;;;;;;1.00;66.06;97364.97;4872518;29;20055;-92
2021/01/15 16:57:33;;;;;;;9.60;7.20;;;;;;;0.96;66.37;97367.84;4874677;29;20054;-91
2021/01/15 17:00:00;;;;;;;9.55;7.35;;;;;;;0.95;66.69;97366.22;4877491;29;20065;-90
2021/01/15 17:02:27;;;;;;;10.57;7.57;;;;;;;0.92;67.16;97366.41;4876707;29;20054;-88
2021/01/15 17:04:54;;;;;;;10.05;7.78;;;;;;;0.90;67.30;97368.28;4878349;29;20049;-90
2021/01/15 17:07:20;;;;;;;10.27;7.20;;;;;;;0.85;67.64;97372.88;4877828;29;20068;-87
2021/01/15 17:09:48;;;;;;;12.00;8.32;;;;;;;0.82;67.41;97376.47;4877983;29;20136;-86
2021/01/15 17:12:19;;;;;;;10.30;7.35;;;;;;;0.79;68.54;97372.38;4876684;29;20056;-86
2021/01/15 17:14:47;;;;;;;11.30;7.78;;;;;;;0.76;67.82;97382.00;4876973;29;20137;-87
2021/01/15 17:17:14;;;;;;;11.23;8.93;;;;;;;0.71;67.76;97387.44;4876318;29;20068;-83
2021/01/15 17:19:41;;;;;;;12.02;8.80;;;;;;;0.70;67.86;97383.25;4875283;29;20061;-88
2021/01/15 17:22:08;;;;;;;11.43;8.23;;;;;;;0.69;68.42;97389.28;4875524;29;20056;-82
2021/01/15 17:24:38;;;;;;;11.55;8.50;;;;;;;0.68;68.59;97390.22;4875725;29;20049;-87
2021/01/15 17:27:06;;;;;;;9.13;7.38;;;;;;;0.66;68.57;97394.66;4875217;29;20058;-86
2021/01/15 17:29:33;;;;;;;11.43;8.02;;;;;;;0.63;68.59;97392.25;4875853;29;20072;-83
2021/01/15 17:32:01;;;;;;;11.40;8.27;;;;;;;0.61;68.63;97401.81;4875167;29;20057;-80
2021/01/15 17:34:34;;;;;;;10.45;7.78;;;;;;;0.60;68.91;97407.88;4874481;29;20066;-88
2021/01/15 17:37:00;;;;;;;11.93;8.05;;;;;;;0.60;68.96;97408.69;4873660;29;20531;-83
2021/01/15 17:39:27;;;;;;;12.90;9.70;;;;;;;0.59;69.14;97406.22;4873031;29;20675;-79
2021/01/15 17:41:53;;;;;;;11.70;8.77;;;;;;;0.56;68.98;97411.56;4872311;29;20068;-86
2021/01/15 17:44:21;;;;;;;12.00;8.98;;;;;;;0.54;69.48;97414.22;4872603;29;20068;-86
2021/01/15 17:46:48;;;;;;;11.45;8.70;;;;;;;0.56;69.48;97419.25;4873533;29;20057;-86
2021/01/15 17:49:15;;;;;;;11.95;9.13;;;;;;;0.55;69.64;97415.06;4873535;29;20049;-86
2021/01/15 17:51:41;;;;;;;12.88;9.25;;;;;;;0.56;69.78;97422.66;4875849;29;20054;-82
2021/01/15 17:54:08;;;;;;;12.80;8.75;;;;;;;0.56;69.59;97426.97;4873739;29;20057;-81
2021/01/15 17:56:35;;;;;;;11.02;9.38;;;;;;;0.56;69.97;97420.09;4875357;29;20077;-86
2021/01/15 17:59:02;;;;;;;15.40;9.48;;;;;;;0.57;69.87;97423.50;4874492;29;20516;-86
2021/01/15 18:01:30;;;;;;;13.35;9.02;;;;;;;0.58;70.08;97430.25;4873215;29;20049;-87
2021/01/15 18:03:58;;;;;;;12.75;9.35;;;;;;;0.57;69.88;97424.31;4873984;29;20049;-85
2021/01/15 18:06:25;;;;;;;12.30;9.15;;;;;;;0.56;69.74;97429.53;4873295;29;20141;-81
2021/01/15 18:08:52;;;;;;;12.02;8.82;;;;;;;0.55;70.00;97425.34;4873112;29;20540;-83
2021/01/15 18:11:19;;;;;;;13.50;8.88;;;;;;;0.52;70.22;97426.34;4871318;29;20067;-82
2021/01/15 18:13:45;;;;;;;12.45;9.20;;;;;;;0.52;70.12;97435.78;4871534;29;20050;-81
2021/01/15 18:16:12;;;;;;;13.48;9.27;;;;;;;0.51;70.10;97436.72;4871370;29;20136;-80
2021/01/15 18:18:44;;;;;;;15.85;11.27;;;;;;;0.50;70.12;97440.19;4870346;29;20061;-79
2021/01/15 18:21:10;;;;;;;14.85;9.48;;;;;;;0.49;70.51;97441.94;4870859;29;20073;-78
2021/01/15 18:23:37;;;;;;;12.73;9.57;;;;;;;0.48;70.49;97442.88;4868366;29;20516;-78
2021/01/15 18:26:04;;;;;;;13.45;9.48;;;;;;;0.46;70.52;97449.00;4870951;29;20057;-78
2021/01/15 18:28:31;;;;;;;13.00;9.55;;;;;;;0.41;70.49;97446.72;4870264;29;20061;-79
2021/01/15 18:30:58;;;;;;;14.18;9.98;;;;;;;0.39;70.68;97444.28;4870052;29;20064;-79